Time;durP1;ratioP1;P1;durP2;ratioP2;P2;SDS_P1;SDS_P2;PMS_P1;PMS_P2;Temp;Humidity;BMP_temperature;BMP_pressure;BME280_temperature;BME280_humidity;BME280_pressure;Samples;Min_cycle;Max_cycle;Signal;HPM_P1;HPM_P2
2023/04/08 00:00:06;;;;;;;;;;;;;;;7.14;100.00;102282.09;5052951;28;19916;-44
2023/04/08 00:02:32;;;;;;;;;;;;;;;7.15;100.00;102283.84;5050724;28;19921;-45
2023/04/08 00:04:57;;;;;;;;;;;;;;;7.15;100.00;102282.19;5049444;28;19919;-45
2023/04/08 00:07:22;;;;;;;;;;;;;;;7.17;100.00;102279.75;5054941;28;19967;-44
2023/04/08 00:09:48;;;;;;;;;;;;;;;7.18;100.00;102276.41;5052846;28;19917;-44
2023/04/08 00:12:13;;;;;;;;;;;;;;;7.19;100.00;102283.28;5054579;28;19924;-44
2023/04/08 00:14:40;;;;;;;;;;;;;;;7.20;100.00;102282.50;5052703;28;20019;-44
2023/04/08 00:17:06;;;;;;;;;;;;;;;7.23;100.00;102280.16;5051664;28;19925;-45
2023/04/08 00:19:32;;;;;;;;;;;;;;;7.23;100.00;102280.16;5062781;28;19916;-49
2023/04/08 00:21:57;;;;;;;;;;;;;;;7.25;100.00;102279.44;5062458;28;19942;-45
2023/04/08 00:24:22;;;;;;;;;;;;;;;7.26;100.00;102275.22;5061686;28;20504;-46
2023/04/08 00:26:47;;;;;;;;;;;;;;;7.28;100.00;102278.78;5062462;28;19920;-45
2023/04/08 00:29:13;;;;;;;;;;;;;;;7.29;100.00;102284.78;5062856;28;19920;-46
2023/04/08 00:31:38;;;;;;;;;;;;;;;7.30;100.00;102286.53;5063858;28;20426;-46
2023/04/08 00:34:03;;;;;;;;;;;;;;;7.30;100.00;102281.41;5061815;28;19920;-46
2023/04/08 00:36:28;;;;;;;;;;;;;;;7.32;100.00;102285.81;5059498;28;19923;-46
2023/04/08 00:38:54;;;;;;;;;;;;;;;7.33;100.00;102281.59;5045954;28;19925;-46
2023/04/08 00:41:19;;;;;;;;;;;;;;;7.33;100.00;102276.47;5059356;28;20342;-45
2023/04/08 00:43:45;;;;;;;;;;;;;;;7.34;100.00;102283.38;5055092;28;19916;-45
2023/04/08 00:46:10;;;;;;;;;;;;;;;7.34;100.00;102284.28;5043414;28;19925;-44
2023/04/08 00:48:35;;;;;;;;;;;;;;;7.34;100.00;102284.28;5058951;28;19917;-47
2023/04/08 00:51:01;;;;;;;;;;;;;;;7.34;100.00;102286.84;5059215;28;19947;-46
2023/04/08 00:53:26;;;;;;;;;;;;;;;7.35;100.00;102290.28;5067433;28;19912;-47
2023/04/08 00:55:52;;;;;;;;;;;;;;;7.36;100.00;102290.38;5055659;28;20375;-44
2023/04/08 00:58:17;;;;;;;;;;;;;;;7.34;100.00;102288.47;5058101;28;21057;-45
2023/04/08 01:00:45;;;;;;;;;;;;;;;7.34;100.00;102288.47;5059795;28;20438;-44
2023/04/08 01:03:17;;;;;;;;;;;;;;;7.34;100.00;102288.47;5059646;28;19952;-45
2023/04/08 01:05:55;;;;;;;;;;;;;;;7.32;100.00;102288.38;5056079;28;19912;-48
2023/04/08 01:08:20;;;;;;;;;;;;;;;7.30;100.00;102284.84;5056224;28;20344;-48
2023/04/08 01:10:49;;;;;;;;;;;;;;;7.30;100.00;102292.53;5053299;28;20438;-48
2023/04/08 01:13:16;;;;;;;;;;;;;;;7.29;100.00;102288.22;5053303;28;20264;-48
2023/04/08 01:15:43;;;;;;;;;;;;;;;7.29;100.00;102290.78;5050945;28;19908;-48
2023/04/08 01:18:12;;;;;;;;;;;;;;;7.29;100.00;102292.44;5054204;28;20265;-48
2023/04/08 01:20:39;;;;;;;;;;;;;;;7.28;100.00;102285.53;5051008;28;19909;-49
2023/04/08 01:23:23;;;;;;;;;;;;;;;7.26;100.00;102288.00;5053249;28;19919;-49
2023/04/08 01:25:49;;;;;;;;;;;;;;;7.27;100.00;102297.44;5051969;28;19912;-48
2023/04/08 01:28:16;;;;;;;;;;;;;;;7.27;100.00;102294.88;5051282;28;19925;-49
2023/04/08 01:30:43;;;;;;;;;;;;;;;7.28;100.00;102293.19;5050597;28;20372;-47
2023/04/08 01:33:10;;;;;;;;;;;;;;;7.26;100.00;102301.66;5035261;28;20380;-48
2023/04/08 01:35:36;;;;;;;;;;;;;;;7.28;100.00;102298.31;5052760;28;19920;-47
2023/04/08 01:38:01;;;;;;;;;;;;;;;7.26;100.00;102301.66;5053301;28;19925;-48
2023/04/08 01:40:27;;;;;;;;;;;;;;;7.28;100.00;102300.88;5054087;28;19912;-48
2023/04/08 01:42:54;;;;;;;;;;;;;;;7.29;100.00;102301.00;5050660;28;20272;-47
2023/04/08 01:45:21;;;;;;;;;;;;;;;7.31;100.00;102306.22;5064801;28;19908;-49
2023/04/08 01:47:47;;;;;;;;;;;;;;;7.30;100.00;102304.44;5049804;28;20278;-48
2023/04/08 01:50:14;;;;;;;;;;;;;;;7.31;100.00;102301.97;5051945;28;20375;-52
2023/04/08 01:52:40;;;;;;;;;;;;;;;7.32;100.00;102311.41;5053440;28;19913;-48
2023/04/08 01:55:06;;;;;;;;;;;;;;;7.31;100.00;102309.66;5052180;28;19999;-50
2023/04/08 01:57:32;;;;;;;;;;;;;;;7.33;100.00;102307.19;5046713;28;19927;-49
2023/04/08 02:00:04;;;;;;;;;;;;;;;7.33;100.00;102307.19;5054951;28;19913;-50
2023/04/08 02:02:31;;;;;;;;;;;;;;;7.34;100.00;102314.97;5055673;28;19913;-48
2023/04/08 02:04:57;;;;;;;;;;;;;;;7.32;100.00;102318.22;5058323;28;19913;-49
2023/04/08 02:07:22;;;;;;;;;;;;;;;7.32;100.00;102308.84;5057711;28;20336;-49
2023/04/08 02:09:47;;;;;;;;;;;;;;;7.32;100.00;102305.41;5053833;28;19916;-48
2023/04/08 02:12:13;;;;;;;;;;;;;;;7.31;100.00;102308.78;5051569;28;19924;-52
2023/04/08 02:14:38;;;;;;;;;;;;;;;7.30;100.00;102307.88;5052300;28;19923;-51
2023/04/08 02:17:09;;;;;;;;;;;;;;;7.31;100.00;102314.78;5053945;28;19927;-50
2023/04/08 02:19:39;;;;;;;;;;;;;;;7.32;100.00;102307.97;5053430;28;19924;-52
2023/04/08 02:22:07;;;;;;;;;;;;;;;7.33;100.00;102314.84;5055163;28;19916;-50
2023/04/08 02:24:34;;;;;;;;;;;;;;;7.34;100.00;102314.97;5057623;28;19913;-48
2023/04/08 02:27:02;;;;;;;;;;;;;;;7.33;100.00;102310.63;5054043;28;19916;-49
2023/04/08 02:29:28;;;;;;;;;;;;;;;7.35;100.00;102320.97;5057441;28;19927;-48
2023/04/08 02:31:54;;;;;;;;;;;;;;;7.37;100.00;102316.84;5053527;28;20021;-50
2023/04/08 02:34:20;;;;;;;;;;;;;;;7.38;100.00;102305.81;5058651;28;19938;-48
2023/04/08 02:36:46;;;;;;;;;;;;;;;7.40;100.00;102314.47;5053948;28;19912;-51
2023/04/08 02:39:12;;;;;;;;;;;;;;;7.41;100.00;102316.25;5053651;28;19932;-51
2023/04/08 02:41:37;;;;;;;;;;;;;;;7.41;100.00;102322.25;5052457;28;19924;-52
2023/04/08 02:44:02;;;;;;;;;;;;;;;7.42;100.00;102316.34;5052674;28;19962;-49
2023/04/08 02:46:28;;;;;;;;;;;;;;;7.44;100.00;102321.56;5056871;28;20406;-51
2023/04/08 02:48:53;;;;;;;;;;;;;;;7.45;100.00;102331.00;5057173;28;19999;-49
2023/04/08 02:51:18;;;;;;;;;;;;;;;7.44;100.00;102327.56;5054236;28;19921;-50
2023/04/08 02:53:43;;;;;;;;;;;;;;;7.43;100.00;102323.22;5053065;28;19924;-52
2023/04/08 02:56:09;;;;;;;;;;;;;;;7.42;100.00;102326.59;5057885;28;19912;-51
2023/04/08 02:58:34;;;;;;;;;;;;;;;7.41;100.00;102329.06;5059688;28;19924;-50
2023/04/08 03:01:00;;;;;;;;;;;;;;;7.38;100.00;102332.28;5060192;28;19919;-50
2023/04/08 03:03:28;;;;;;;;;;;;;;;7.35;100.00;102329.53;5054460;28;19916;-50
2023/04/08 03:05:55;;;;;;;;;;;;;;;7.31;100.00;102332.69;5055822;28;19916;-51
2023/04/08 03:08:20;;;;;;;;;;;;;;;7.30;100.00;102335.16;5055475;28;20377;-50
2023/04/08 03:10:46;;;;;;;;;;;;;;;7.25;100.00;102328.06;5054124;28;20363;-49
2023/04/08 03:13:11;;;;;;;;;;;;;;;7.22;100.00;102327.88;5050723;28;20414;-52
2023/04/08 03:15:37;;;;;;;;;;;;;;;7.18;100.00;102325.88;5057039;28;19920;-52
2023/04/08 03:18:03;;;;;;;;;;;;;;;7.13;100.00;102329.81;5051620;28;19982;-52
2023/04/08 03:20:29;;;;;;;;;;;;;;;7.07;100.00;102321.75;5050137;28;19944;-52
2023/04/08 03:22:54;;;;;;;;;;;;;;;7.02;100.00;102325.66;5050965;28;19982;-52
2023/04/08 03:25:19;;;;;;;;;;;;;;;6.96;100.00;102330.38;5051352;28;19923;-50
2023/04/08 03:27:44;;;;;;;;;;;;;;;6.90;100.00;102329.97;5058329;28;19969;-49
2023/04/08 03:30:10;;;;;;;;;;;;;;;6.82;100.00;102316.69;5056760;28;19913;-48
2023/04/08 03:32:35;;;;;;;;;;;;;;;6.76;100.00;102323.94;5056667;28;20386;-49
2023/04/08 03:35:00;;;;;;;;;;;;;;;6.67;100.00;102323.31;5061865;28;19912;-52
2023/04/08 03:37:25;;;;;;;;;;;;;;;6.60;100.00;102328.81;5056096;28;19920;-51
2023/04/08 03:39:50;;;;;;;;;;;;;;;6.53;100.00;102332.63;5054065;28;19916;-51
2023/04/08 03:42:16;;;;;;;;;;;;;;;6.44;100.00;102327.78;5051229;28;19979;-49
2023/04/08 03:44:42;;;;;;;;;;;;;;;6.41;100.00;102329.22;5050387;28;20417;-49
2023/04/08 03:47:07;;;;;;;;;;;;;;;6.35;100.00;102329.69;5056197;28;19920;-51
2023/04/08 03:49:32;;;;;;;;;;;;;;;6.31;100.00;102330.28;5052077;28;19919;-48
2023/04/08 03:51:57;;;;;;;;;;;;;;;6.33;100.00;102340.63;5062135;28;20289;-47
2023/04/08 03:54:23;;;;;;;;;;;;;;;6.39;100.00;102338.47;5054809;28;19917;-48
2023/04/08 03:56:48;;;;;;;;;;;;;;;6.43;100.00;102336.25;5057333;28;19962;-52
2023/04/08 03:59:14;;;;;;;;;;;;;;;6.48;100.00;102339.09;5058048;28;20010;-48
2023/04/08 04:01:39;;;;;;;;;;;;;;;6.53;100.00;102341.97;5055026;28;20327;-48
2023/04/08 04:04:05;;;;;;;;;;;;;;;6.55;100.00;102343.84;5056299;28;19943;-48
2023/04/08 04:06:30;;;;;;;;;;;;;;;6.59;100.00;102342.38;5055133;28;19916;-48
2023/04/08 04:08:57;;;;;;;;;;;;;;;6.62;100.00;102345.16;5057638;28;20042;-49
2023/04/08 04:11:22;;;;;;;;;;;;;;;6.65;100.00;102342.78;5059313;28;19930;-51
2023/04/08 04:13:47;;;;;;;;;;;;;;;6.69;100.00;102340.56;5048787;28;19920;-51
2023/04/08 04:16:13;;;;;;;;;;;;;;;6.69;100.00;102343.09;5060075;28;19917;-50
2023/04/08 04:18:38;;;;;;;;;;;;;;;6.72;100.00;102350.09;5058193;28;20023;-49
2023/04/08 04:21:06;;;;;;;;;;;;;;;6.72;100.00;102350.09;5041226;28;19917;-52
2023/04/08 04:23:32;;;;;;;;;;;;;;;6.73;100.00;102351.84;5053755;28;20314;-52
2023/04/08 04:25:57;;;;;;;;;;;;;;;6.72;100.00;102357.75;5056375;28;19966;-51
2023/04/08 04:28:22;;;;;;;;;;;;;;;6.72;100.00;102357.75;5058307;28;19928;-49
2023/04/08 04:30:47;;;;;;;;;;;;;;;6.70;100.00;102365.31;5058391;28;20340;-51
2023/04/08 04:33:13;;;;;;;;;;;;;;;6.67;100.00;102374.44;5044423;28;19924;-52
2023/04/08 04:35:38;;;;;;;;;;;;;;;6.64;100.00;102377.69;5056691;28;19958;-49
2023/04/08 04:38:09;;;;;;;;;;;;;;;6.62;100.00;102380.94;5059642;28;20011;-51
2023/04/08 04:40:34;;;;;;;;;;;;;;;6.58;100.00;102374.72;5059246;28;19917;-50
2023/04/08 04:43:00;;;;;;;;;;;;;;;6.53;100.00;102385.41;5060237;28;20400;-48
2023/04/08 04:45:25;;;;;;;;;;;;;;;6.49;100.00;102381.75;5058444;28;20355;-48
2023/04/08 04:47:50;;;;;;;;;;;;;;;6.44;100.00;102383.13;5053700;28;19913;-50
2023/04/08 04:50:15;;;;;;;;;;;;;;;6.42;100.00;102384.66;5056533;28;19920;-48
2023/04/08 04:52:41;;;;;;;;;;;;;;;6.40;100.00;102394.78;5053603;28;19921;-50
2023/04/08 04:55:06;;;;;;;;;;;;;;;6.40;100.00;102392.22;5063169;28;19916;-50
2023/04/08 04:57:31;;;;;;;;;;;;;;;6.39;100.00;102397.25;5058267;28;19913;-48
2023/04/08 04:59:56;;;;;;;;;;;;;;;6.38;100.00;102395.47;5057484;28;19941;-48
2023/04/08 05:02:22;;;;;;;;;;;;;;;6.33;100.00;102392.59;5058391;28;19916;-53
2023/04/08 05:04:47;;;;;;;;;;;;;;;6.36;100.00;102403.00;5038635;28;20008;-48
2023/04/08 05:07:12;;;;;;;;;;;;;;;6.37;100.00;102411.56;5055673;28;20015;-48
2023/04/08 05:09:37;;;;;;;;;;;;;;;6.35;100.00;102411.47;5058465;28;19916;-49
2023/04/08 05:12:03;;;;;;;;;;;;;;;6.35;100.00;102413.13;5053044;28;19928;-48
2023/04/08 05:14:29;;;;;;;;;;;;;;;6.34;100.00;102413.91;5055453;28;19999;-49
2023/04/08 05:16:55;;;;;;;;;;;;;;;6.32;100.00;102406.16;5054172;28;20008;-48
2023/04/08 05:19:20;;;;;;;;;;;;;;;6.31;100.00;102421.34;5056489;28;20014;-51
2023/04/08 05:21:45;;;;;;;;;;;;;;;6.32;100.00;102413.81;5050910;28;20342;-49
2023/04/08 05:24:11;;;;;;;;;;;;;;;6.34;100.00;102417.34;5053688;28;20355;-49
2023/04/08 05:26:36;;;;;;;;;;;;;;;6.34;100.00;102419.91;5052353;28;19913;-47
2023/04/08 05:29:02;;;;;;;;;;;;;;;6.37;100.00;102416.66;5058443;28;19912;-50
2023/04/08 05:31:27;;;;;;;;;;;;;;;6.39;100.00;102420.25;5057555;28;19935;-49
2023/04/08 05:33:52;;;;;;;;;;;;;;;6.42;100.00;102421.31;5059528;28;19924;-49
2023/04/08 05:36:18;;;;;;;;;;;;;;;6.44;100.00;102421.44;5059816;28;19920;-49
2023/04/08 05:38:43;;;;;;;;;;;;;;;6.45;100.00;102424.09;5058386;28;19920;-49
2023/04/08 05:41:08;;;;;;;;;;;;;;;6.44;100.00;102429.13;5056746;28;19952;-47
2023/04/08 05:43:34;;;;;;;;;;;;;;;6.46;100.00;102430.09;5058308;28;19962;-49
2023/04/08 05:45:59;;;;;;;;;;;;;;;6.48;100.00;102427.63;5054187;28;20615;-48
2023/04/08 05:48:25;;;;;;;;;;;;;;;6.47;100.00;102431.88;5055542;28;19999;-49
2023/04/08 05:50:50;;;;;;;;;;;;;;;6.50;100.00;102428.66;5053054;28;19923;-48
2023/04/08 05:53:15;;;;;;;;;;;;;;;6.51;100.00;102431.31;5057466;28;19913;-48
2023/04/08 05:55:40;;;;;;;;;;;;;;;6.53;100.00;102439.97;5059808;28;19970;-48
2023/04/08 05:58:06;;;;;;;;;;;;;;;6.54;100.00;102435.72;5062825;28;19921;-50
2023/04/08 06:00:31;;;;;;;;;;;;;;;6.56;100.00;102441.84;5060738;28;20422;-48
2023/04/08 06:02:56;;;;;;;;;;;;;;;6.60;100.00;102439.59;5060795;28;19923;-47
2023/04/08 06:05:22;;;;;;;;;;;;;;;6.63;100.00;102441.50;5063456;28;19912;-48
2023/04/08 06:07:47;;;;;;;;;;;;;;;6.68;100.00;102447.81;5055810;28;20360;-49
2023/04/08 06:10:12;;;;;;;;;;;;;;;6.69;100.00;102447.91;5062081;28;19963;-50
2023/04/08 06:12:38;;;;;;;;;;;;;;;6.73;100.00;102449.00;5057202;28;19921;-48
2023/04/08 06:15:04;;;;;;;;;;;;;;;6.74;100.00;102440.56;5056602;28;19926;-51
2023/04/08 06:17:30;;;;;;;;;;;;;;;6.76;100.00;102451.78;5057410;28;19960;-51
2023/04/08 06:19:55;;;;;;;;;;;;;;;6.81;100.00;102462.31;5058346;28;19947;-49
2023/04/08 06:22:20;;;;;;;;;;;;;;;6.83;100.00;102458.19;5051091;28;19917;-51
2023/04/08 06:24:46;;;;;;;;;;;;;;;6.85;100.00;102467.72;5056717;28;19979;-48
2023/04/08 06:27:11;;;;;;;;;;;;;;;6.86;100.00;102451.63;5047677;28;20003;-48
2023/04/08 06:29:37;;;;;;;;;;;;;;;6.89;100.00;102459.50;5050238;28;20283;-50
2023/04/08 06:32:02;;;;;;;;;;;;;;;6.94;100.00;102464.94;5053644;28;19923;-48
2023/04/08 06:34:27;;;;;;;;;;;;;;;6.96;100.00;102464.25;5057287;28;19944;-50
2023/04/08 06:36:52;;;;;;;;;;;;;;;6.98;100.00;102475.47;5057977;28;19943;-48
2023/04/08 06:39:19;;;;;;;;;;;;;;;7.01;100.00;102474.78;5055002;28;19924;-51
2023/04/08 06:41:44;;;;;;;;;;;;;;;7.05;100.00;102479.34;5055793;28;19916;-50
2023/04/08 06:44:09;;;;;;;;;;;;;;;7.08;100.00;102478.66;5052962;28;19920;-51
2023/04/08 06:46:35;;;;;;;;;;;;;;;7.13;100.00;102483.31;5052978;28;19917;-50
2023/04/08 06:49:00;;;;;;;;;;;;;;;7.18;100.00;102484.50;5040816;28;19919;-47
2023/04/08 06:51:26;;;;;;;;;;;;;;;7.26;100.00;102490.13;5063118;28;19937;-49
2023/04/08 06:53:51;;;;;;;;;;;;;;;7.30;100.00;102489.56;5054239;28;20334;-51
2023/04/08 06:56:17;;;;;;;;;;;;;;;7.33;100.00;102482.06;5058684;28;19916;-51
2023/04/08 06:58:42;;;;;;;;;;;;;;;7.38;100.00;102488.38;5065712;28;19916;-52
2023/04/08 07:01:07;;;;;;;;;;;;;;;7.40;100.00;102489.41;5058944;28;19908;-50
2023/04/08 07:03:32;;;;;;;;;;;;;;;7.37;100.00;102496.84;5054467;28;19917;-51
2023/04/08 07:05:58;;;;;;;;;;;;;;;7.34;100.00;102500.88;5054999;28;20360;-49
2023/04/08 07:08:23;;;;;;;;;;;;;;;7.32;100.00;102516.13;5059142;28;19963;-49
2023/04/08 07:10:50;;;;;;;;;;;;;;;7.29;100.00;102515.94;5053947;28;20364;-50
2023/04/08 07:13:16;;;;;;;;;;;;;;;7.28;100.00;102513.25;5053757;28;19970;-49
2023/04/08 07:15:41;;;;;;;;;;;;;;;7.29;100.00;102510.81;5051242;28;19929;-50
2023/04/08 07:18:06;;;;;;;;;;;;;;;7.33;100.00;102515.34;5049296;28;19921;-47
2023/04/08 07:20:34;;;;;;;;;;;;;;;7.37;100.00;102514.78;5050702;28;19973;-47
2023/04/08 07:22:59;;;;;;;;;;;;;;;7.41;100.00;102524.44;5054602;28;19970;-50
2023/04/08 07:25:25;;;;;;;;;;;;;;;7.41;100.00;102524.44;5051959;28;19921;-48
2023/04/08 07:27:51;;;;;;;;;;;;;;;7.40;100.00;102535.47;5051993;28;20003;-49
2023/04/08 07:30:16;;;;;;;;;;;;;;;7.39;100.00;102531.09;5050648;28;20338;-51
2023/04/08 07:32:42;;;;;;;;;;;;;;;7.38;100.00;102536.13;5059072;28;19912;-50
2023/04/08 07:35:07;;;;;;;;;;;;;;;7.40;100.00;102534.53;5057495;28;19916;-50
2023/04/08 07:37:32;;;;;;;;;;;;;;;7.43;100.00;102539.88;5059412;28;19919;-48
2023/04/08 07:39:57;;;;;;;;;;;;;;;7.46;100.00;102535.88;5063443;28;19912;-50
2023/04/08 07:42:23;;;;;;;;;;;;;;;7.51;100.00;102537.03;5056763;28;19917;-51
2023/04/08 07:44:48;;;;;;;;;;;;;;;7.51;100.00;102537.03;5059382;28;20007;-50
2023/04/08 07:47:13;;;;;;;;;;;;;;;7.51;100.00;102544.72;5059297;28;19920;-50
2023/04/08 07:49:39;;;;;;;;;;;;;;;7.51;100.00;102546.41;5058302;28;20011;-50
2023/04/08 07:52:05;;;;;;;;;;;;;;;7.44;100.00;102552.78;5057845;28;20264;-50
2023/04/08 07:54:33;;;;;;;;;;;;;;;7.34;100.00;102552.03;5060493;28;19928;-49
2023/04/08 07:56:58;;;;;;;;;;;;;;;7.35;100.00;102554.75;5053847;28;20003;-47
2023/04/08 07:59:24;;;;;;;;;;;;;;;7.36;100.00;102553.06;5056816;28;20485;-49
2023/04/08 08:01:49;;;;;;;;;;;;;;;7.38;100.00;102552.38;5058279;28;19927;-47
2023/04/08 08:04:14;;;;;;;;;;;;;;;7.40;100.00;102555.94;5055515;28;19921;-47
2023/04/08 08:06:40;;;;;;;;;;;;;;;7.39;100.00;102556.69;5055653;28;20158;-52
2023/04/08 08:09:05;;;;;;;;;;;;;;;7.39;100.00;102561.81;5059100;28;19935;-47
2023/04/08 08:11:31;;;;;;;;;;;;;;;7.39;100.00;102564.38;5054894;28;20294;-51
2023/04/08 08:13:57;;;;;;;;;;;;;;;7.41;100.00;102567.94;5057095;28;20007;-49
2023/04/08 08:16:25;;;;;;;;;;;;;;;7.37;100.00;102567.63;5057211;28;20012;-51
2023/04/08 08:18:51;;;;;;;;;;;;;;;7.28;100.00;102575.56;5053830;28;19921;-49
2023/04/08 08:21:16;;;;;;;;;;;;;;;7.30;100.00;102579.13;5057992;28;20397;-48
2023/04/08 08:23:41;;;;;;;;;;;;;;;7.31;100.00;102586.00;5056703;28;20299;-49
2023/04/08 08:26:10;;;;;;;;;;;;;;;7.31;100.00;102580.00;5054979;28;19966;-49
2023/04/08 08:28:36;;;;;;;;;;;;;;;7.33;100.00;102583.53;5058445;28;19938;-52
2023/04/08 08:31:02;;;;;;;;;;;;;;;7.40;100.00;102578.06;5058999;28;20020;-48
2023/04/08 08:33:28;;;;;;;;;;;;;;;7.45;100.00;102582.72;5054003;28;20011;-51
2023/04/08 08:35:53;;;;;;;;;;;;;;;7.52;100.00;102573.75;5058925;28;19912;-50
2023/04/08 08:38:18;;;;;;;;;;;;;;;7.58;100.00;102583.53;5057157;28;19920;-50
2023/04/08 08:40:44;;;;;;;;;;;;;;;7.58;100.00;102586.09;5054516;28;20283;-50
2023/04/08 08:43:10;;;;;;;;;;;;;;;7.57;100.00;102586.88;5052527;28;19921;-53
2023/04/08 08:45:39;;;;;;;;;;;;;;;7.61;100.00;102591.44;5062342;28;20390;-51
2023/04/08 08:48:05;;;;;;;;;;;;;;;7.65;100.00;102593.44;5060958;28;19919;-51
2023/04/08 08:50:30;;;;;;;;;;;;;;;7.68;100.00;102596.19;5058757;28;19912;-50
2023/04/08 08:52:55;;;;;;;;;;;;;;;7.70;100.00;102600.59;5057807;28;19917;-51
2023/04/08 08:55:21;;;;;;;;;;;;;;;7.72;100.00;102601.63;5057152;28;19913;-53
2023/04/08 08:57:50;;;;;;;;;;;;;;;7.72;100.00;102600.72;5054714;28;19919;-52
2023/04/08 09:00:15;;;;;;;;;;;;;;;7.78;100.00;102606.25;5057543;28;20008;-51
2023/04/08 09:02:40;;;;;;;;;;;;;;;7.88;100.00;102595.81;5057684;28;20006;-51
2023/04/08 09:05:06;;;;;;;;;;;;;;;7.98;100.00;102595.66;5053200;28;19924;-49
2023/04/08 09:07:35;;;;;;;;;;;;;;;8.03;100.00;102599.41;5058986;28;20359;-49
2023/04/08 09:10:01;;;;;;;;;;;;;;;8.13;100.00;102612.81;5056874;28;19913;-48
2023/04/08 09:12:27;;;;;;;;;;;;;;;8.19;100.00;102616.69;5059655;28;19928;-51
2023/04/08 09:15:05;;;;;;;;;;;;;;;8.20;100.00;102617.59;5059566;28;19941;-49
2023/04/08 09:17:32;;;;;;;;;;;;;;;8.23;100.00;102613.53;5041801;28;19920;-49
2023/04/08 09:20:10;;;;;;;;;;;;;;;8.32;100.00;102624.41;5060795;28;19924;-52
2023/04/08 09:22:54;;;;;;;;;;;;;;;8.39;100.00;102618.03;5061846;28;19958;-49
2023/04/08 09:25:24;;;;;;;;;;;;;;;8.33;100.00;102627.84;5056174;28;19924;-49
2023/04/08 09:27:50;;;;;;;;;;;;;;;8.34;100.00;102622.81;5052168;28;19913;-49
2023/04/08 09:30:16;;;;;;;;;;;;;;;8.41;100.00;102624.13;5055087;28;20001;-48
2023/04/08 09:32:51;;;;;;;;;;;;;;;8.47;100.00;102615.94;5061002;28;19984;-51
2023/04/08 09:35:17;;;;;;;;;;;;;;;8.56;100.00;102620.00;5062360;28;19917;-50
2023/04/08 09:37:43;;;;;;;;;;;;;;;8.65;100.00;102623.94;5057716;28;19916;-49
2023/04/08 09:40:08;;;;;;;;;;;;;;;8.59;100.00;102632.13;5056740;28;19965;-49
2023/04/08 09:42:35;;;;;;;;;;;;;;;8.67;100.00;102625.78;5057406;28;19936;-51
2023/04/08 09:45:03;;;;;;;;;;;;;;;8.65;100.00;102629.94;5062117;28;19915;-51
2023/04/08 09:47:32;;;;;;;;;;;;;;;8.72;100.00;102626.97;5050979;28;19926;-50
2023/04/08 09:50:04;;;;;;;;;;;;;;;8.78;100.00;102635.06;5055641;28;19912;-51
2023/04/08 09:52:32;;;;;;;;;;;;;;;8.79;100.00;102628.25;5054730;28;19920;-51
2023/04/08 09:55:05;;;;;;;;;;;;;;;8.81;100.00;102626.69;5057898;28;20003;-51
2023/04/08 09:57:40;;;;;;;;;;;;;;;8.87;100.00;102634.78;5057274;28;20456;-52
2023/04/08 10:00:16;;;;;;;;;;;;;;;8.86;100.00;102641.59;5056446;28;19938;-50
2023/04/08 10:02:55;;;;;;;;;;;;;;;8.91;100.00;102639.28;5053903;28;19912;-52
2023/04/08 10:05:21;;;;;;;;;;;;;;;8.90;100.00;102641.75;5054541;28;19931;-51
2023/04/08 10:07:47;;;;;;;;;;;;;;;8.94;100.00;102646.31;5056147;28;19916;-46
2023/04/08 10:10:13;;;;;;;;;;;;;;;9.01;100.00;102651.91;5058676;28;20412;-49
2023/04/08 10:12:39;;;;;;;;;;;;;;;9.06;100.00;102642.81;5053781;28;19972;-49
2023/04/08 10:15:23;;;;;;;;;;;;;;;9.17;100.00;102638.38;5040096;28;20291;-45
2023/04/08 10:17:49;;;;;;;;;;;;;;;9.32;100.00;102636.72;5051724;28;20282;-48
2023/04/08 10:20:32;;;;;;;;;;;;;;;9.53;100.00;102636.28;5052298;28;20414;-46
2023/04/08 10:22:58;;;;;;;;;;;;;;;9.65;100.00;102639.59;5058750;28;20058;-47
2023/04/08 10:25:42;;;;;;;;;;;;;;;9.81;100.00;102626.84;5050753;28;20371;-45
2023/04/08 10:28:10;;;;;;;;;;;;;;;10.04;100.00;102633.34;5055322;28;20007;-49
2023/04/08 10:30:43;;;;;;;;;;;;;;;10.05;100.00;102627.41;5056000;28;19996;-46
2023/04/08 10:33:09;;;;;;;;;;;;;;;10.16;100.00;102639.19;5058097;28;19908;-48
2023/04/08 10:35:35;;;;;;;;;;;;;;;10.18;100.00;102635.00;5053036;28;19966;-50
2023/04/08 10:38:01;;;;;;;;;;;;;;;10.17;100.00;102628.09;5053234;28;19924;-48
2023/04/08 10:40:27;;;;;;;;;;;;;;;10.15;100.00;102624.56;5054467;28;19916;-45
2023/04/08 10:42:58;;;;;;;;;;;;;;;10.15;100.00;102623.69;5053789;28;19920;-47
2023/04/08 10:45:24;;;;;;;;;;;;;;;10.13;100.00;102615.91;5051916;28;20053;-46
2023/04/08 10:47:49;;;;;;;;;;;;;;;10.04;100.00;102611.88;5050855;28;19926;-49
2023/04/08 10:50:15;;;;;;;;;;;;;;;10.01;100.00;102610.03;5065899;28;19927;-47
2023/04/08 10:52:46;;;;;;;;;;;;;;;10.09;100.00;102603.66;5055410;28;19912;-47
2023/04/08 10:55:12;;;;;;;;;;;;;;;10.35;100.00;102607.72;5058717;28;19917;-48
2023/04/08 10:57:39;;;;;;;;;;;;;;;10.64;100.00;102608.50;5062524;28;20426;-50
2023/04/08 11:00:05;;;;;;;;;;;;;;;10.78;97.78;102604.09;5054251;28;20061;-48
2023/04/08 11:02:31;;;;;;;;;;;;;;;10.70;96.33;102607.13;5051225;28;20007;-47
2023/04/08 11:04:57;;;;;;;;;;;;;;;10.68;98.59;102608.75;5048496;28;19909;-46
2023/04/08 11:07:24;;;;;;;;;;;;;;;10.71;98.49;102600.31;5051608;28;19913;-44
2023/04/08 11:09:49;;;;;;;;;;;;;;;10.80;98.40;102603.41;5055270;28;20007;-47
2023/04/08 11:12:17;;;;;;;;;;;;;;;10.80;97.50;102603.41;5050742;28;20003;-45
2023/04/08 11:14:43;;;;;;;;;;;;;;;10.87;95.32;102607.19;5053226;28;19978;-49
2023/04/08 11:17:08;;;;;;;;;;;;;;;10.96;93.94;102607.69;5051664;28;20252;-47
2023/04/08 11:19:35;;;;;;;;;;;;;;;10.99;92.89;102605.28;5033441;28;20275;-49
2023/04/08 11:22:01;;;;;;;;;;;;;;;11.08;92.92;102603.19;5053669;28;19908;-49
2023/04/08 11:24:27;;;;;;;;;;;;;;;11.16;93.84;102606.16;5045629;28;19931;-49
2023/04/08 11:26:52;;;;;;;;;;;;;;;11.09;94.51;102602.38;5057729;28;19920;-46
2023/04/08 11:29:18;;;;;;;;;;;;;;;11.15;92.99;102594.97;5057336;28;19920;-49
2023/04/08 11:31:44;;;;;;;;;;;;;;;11.28;94.12;102605.16;5052011;28;20373;-48
2023/04/08 11:34:09;;;;;;;;;;;;;;;11.33;93.96;102596.75;5052288;28;20464;-46
2023/04/08 11:36:35;;;;;;;;;;;;;;;11.56;88.55;102601.44;5051741;28;20355;-46
2023/04/08 11:39:05;;;;;;;;;;;;;;;11.63;91.76;102593.19;5052119;28;19956;-49
2023/04/08 11:41:38;;;;;;;;;;;;;;;11.70;90.39;102591.81;5054327;28;19920;-48
2023/04/08 11:44:05;;;;;;;;;;;;;;;11.76;89.59;102598.16;5052330;28;19935;-50
2023/04/08 11:46:30;;;;;;;;;;;;;;;11.72;89.83;102601.41;5054184;28;19939;-48
2023/04/08 11:49:06;;;;;;;;;;;;;;;11.68;87.79;102598.59;5055856;28;19925;-50
2023/04/08 11:51:33;;;;;;;;;;;;;;;11.73;87.19;102598.03;5051114;28;19916;-51
2023/04/08 11:53:58;;;;;;;;;;;;;;;11.79;85.92;102605.19;5059055;28;20295;-50
2023/04/08 11:56:24;;;;;;;;;;;;;;;11.86;85.85;102598.69;5060201;28;19917;-46
2023/04/08 11:58:50;;;;;;;;;;;;;;;11.90;87.11;102598.03;5061778;28;19916;-46
2023/04/08 12:01:16;;;;;;;;;;;;;;;12.01;88.44;102594.28;5061180;28;19917;-46
2023/04/08 12:03:54;;;;;;;;;;;;;;;12.21;88.71;102593.56;5053971;28;19939;-49
2023/04/08 12:06:20;;;;;;;;;;;;;;;12.38;84.89;102584.09;5055779;28;19917;-48
2023/04/08 12:08:45;;;;;;;;;;;;;;;12.46;81.53;102587.03;5052064;28;19923;-49
2023/04/08 12:11:11;;;;;;;;;;;;;;;12.53;85.25;102589.97;5050723;28;19916;-50
2023/04/08 12:13:36;;;;;;;;;;;;;;;12.57;82.27;102583.25;5008077;28;1155855;-47
2023/04/08 12:16:01;;;;;;;;;;;;;;;12.60;84.92;102583.38;5054978;28;19913;-45
2023/04/08 12:18:27;;;;;;;;;;;;;;;12.59;81.22;102590.25;5054951;28;19942;-47
2023/04/08 12:20:52;;;;;;;;;;;;;;;12.63;78.49;102585.25;5055276;28;19920;-46
2023/04/08 12:23:17;;;;;;;;;;;;;;;12.72;77.65;102589.13;5044002;28;20375;-48
2023/04/08 12:25:43;;;;;;;;;;;;;;;12.77;80.70;102579.03;5054715;28;19928;-48
2023/04/08 12:28:10;;;;;;;;;;;;;;;12.85;79.23;102582.84;5054667;28;19916;-50
2023/04/08 12:30:36;;;;;;;;;;;;;;;13.04;77.55;102581.97;5061831;28;19920;-49